Terminal Aerodrome Forecast
Issued by NWS Upton, NY

Home | Current Version | Previous Version | Text Only | Print | Product List | Glossary On
Versions: 1 2 3 4 5 6 7 8 9 10 11 12 13 14 15 16 17 18 19 20 21 22 23 24 25 26 27 28 29 30 31 32 33
000
FTUS41 KOKX 240221 AAA
TAFBDR
TAF AMD
KBDR 240221Z 2402/2424 27010G18KT P6SM FEW040
     FM240400 27008KT P6SM SKC
     FM241300 28012G20KT P6SM SCT035
     FM242200 29010KT P6SM FEW250=

USA.gov is the U.S. government's official web portal to all federal, state and local government web resources and services.